This is the latest recevied weather packets stored in our database for station/object OK2ZAW-19. If no packets are shown the sender has not sent any weather packets the latest 10 day(s).
| Time | Temp. | Humidity | Pressure | Rain* | Wind** | Luminosity | Snow |
|---|---|---|---|---|---|---|---|
| 1777839967 | 12.78° C | 57% | 1016 hPa | - | - | 337 W/m² | - |
| 1777839345 | 12.78° C | 57% | 1016 hPa | - | - | 337 W/m² | - |
| 1777839035 | 12.78° C | 57% | 1016 hPa | - | - | 337 W/m² | - |
| 1777837482 | 12.78° C | 56% | 1016.1 hPa | - | - | 337 W/m² | - |
| 1777837171 | 12.78° C | 56% | 1016.2 hPa | - | - | 336 W/m² | - |
| 1777836550 | 13.33° C | 55% | 1016.2 hPa | - | - | 337 W/m² | - |
| 1777835307 | 13.33° C | 53% | 1016.2 hPa | - | - | 337 W/m² | - |
| 1777834996 | 13.89° C | 52% | 1016.1 hPa | - | - | 336 W/m² | - |
| 1777833442 | 14.44° C | 49% | 1016 hPa | - | - | 337 W/m² | - |
| 1777833131 | 14.44° C | 48% | 1015.9 hPa | - | - | 337 W/m² | - |
| 1777832509 | 15.56° C | 46% | 1015.8 hPa | - | - | 337 W/m² | - |
| 1777831887 | 16.11° C | 43% | 1015.8 hPa | - | - | 337 W/m² | - |
| 1777829709 | 21.11° C | 34% | 1015.9 hPa | - | - | 337 W/m² | - |
| 1777827527 | 23.89° C | 31% | 1015.8 hPa | - | - | 337 W/m² | - |
| 1777825031 | 25° C | 29% | 1015.9 hPa | - | - | 337 W/m² | - |
| 1777824407 | 25.56° C | 29% | 1015.9 hPa | - | - | 337 W/m² | - |
| 1777822847 | 25.56° C | 28% | 1016.1 hPa | - | - | 337 W/m² | - |
| 1777822535 | 25.56° C | 28% | 1016.1 hPa | - | - | 338 W/m² | - |
| 1777821911 | 26.11° C | 28% | 1016.1 hPa | - | - | 337 W/m² | - |
| 1777821287 | 25° C | 28% | 1016.3 hPa | - | - | 337 W/m² | - |
| 1777817541 | 25.56° C | 29% | 1016.7 hPa | - | - | 337 W/m² | - |
| 1777817229 | 25.56° C | 30% | 1016.8 hPa | - | - | 337 W/m² | - |
| 1777816293 | 25° C | 31% | 1016.9 hPa | - | - | 338 W/m² | - |
| 1777811614 | 22.78° C | 36% | 1017.6 hPa | - | - | 337 W/m² | - |
| 1777810367 | 21.67° C | 36% | 1018 hPa | - | - | 337 W/m² | - |
* Rain since midnight (hover to see other rain measurements)
** Current wind speed in m/s (hover to see current wind gust speed)